sensor_id;sensor_type;location;lat;lon;timestamp;P1;durP1;ratioP1;P2;durP2;ratioP2
22768;SDS011;13001;51.968;5.918;2022-07-17T00:01:43;575.02;;;527.42;;
22768;SDS011;13001;51.968;5.918;2022-07-17T00:04:11;571.98;;;525.05;;
22768;SDS011;13001;51.968;5.918;2022-07-17T00:06:38;556.85;;;511.73;;
22768;SDS011;13001;51.968;5.918;2022-07-17T00:09:05;532.52;;;490.55;;
22768;SDS011;13001;51.968;5.918;2022-07-17T00:11:32;511.12;;;470.38;;
22768;SDS011;13001;51.968;5.918;2022-07-17T00:14:00;509.57;;;468.48;;
22768;SDS011;13001;51.968;5.918;2022-07-17T00:16:32;511.53;;;470.53;;
22768;SDS011;13001;51.968;5.918;2022-07-17T00:18:59;494.95;;;455.87;;
22768;SDS011;13001;51.968;5.918;2022-07-17T00:21:27;487.85;;;450.20;;
22768;SDS011;13001;51.968;5.918;2022-07-17T00:23:54;474.82;;;438.15;;
22768;SDS011;13001;51.968;5.918;2022-07-17T00:26:21;484.70;;;447.20;;
22768;SDS011;13001;51.968;5.918;2022-07-17T00:28:48;492.68;;;454.68;;
22768;SDS011;13001;51.968;5.918;2022-07-17T00:31:16;492.80;;;454.75;;
22768;SDS011;13001;51.968;5.918;2022-07-17T00:33:43;503.05;;;465.17;;
22768;SDS011;13001;51.968;5.918;2022-07-17T00:36:10;503.30;;;465.37;;
22768;SDS011;13001;51.968;5.918;2022-07-17T00:38:38;513.75;;;474.55;;
22768;SDS011;13001;51.968;5.918;2022-07-17T00:41:05;522.80;;;482.98;;
22768;SDS011;13001;51.968;5.918;2022-07-17T00:43:32;534.42;;;494.47;;
22768;SDS011;13001;51.968;5.918;2022-07-17T00:46:00;544.20;;;503.20;;
22768;SDS011;13001;51.968;5.918;2022-07-17T00:48:28;549.70;;;509.00;;
22768;SDS011;13001;51.968;5.918;2022-07-17T00:50:55;538.50;;;498.55;;
22768;SDS011;13001;51.968;5.918;2022-07-17T00:53:23;550.40;;;509.37;;
22768;SDS011;13001;51.968;5.918;2022-07-17T00:55:50;548.25;;;507.68;;
22768;SDS011;13001;51.968;5.918;2022-07-17T00:58:25;571.35;;;528.60;;
22768;SDS011;13001;51.968;5.918;2022-07-17T01:00:49;560.65;;;519.13;;
22768;SDS011;13001;51.968;5.918;2022-07-17T01:03:18;583.72;;;539.97;;
22768;SDS011;13001;51.968;5.918;2022-07-17T01:05:46;577.92;;;534.60;;
22768;SDS011;13001;51.968;5.918;2022-07-17T01:08:13;618.60;;;571.12;;
22768;SDS011;13001;51.968;5.918;2022-07-17T01:10:41;586.03;;;541.57;;
22768;SDS011;13001;51.968;5.918;2022-07-17T01:13:08;573.13;;;530.73;;
22768;SDS011;13001;51.968;5.918;2022-07-17T01:15:36;604.42;;;558.67;;
22768;SDS011;13001;51.968;5.918;2022-07-17T01:18:09;588.27;;;544.28;;
22768;SDS011;13001;51.968;5.918;2022-07-17T01:20:33;556.63;;;515.08;;
22768;SDS011;13001;51.968;5.918;2022-07-17T01:23:01;575.98;;;532.92;;
22768;SDS011;13001;51.968;5.918;2022-07-17T01:25:29;606.30;;;559.77;;
22768;SDS011;13001;51.968;5.918;2022-07-17T01:27:56;619.30;;;571.85;;
22768;SDS011;13001;51.968;5.918;2022-07-17T01:30:24;621.47;;;574.13;;
22768;SDS011;13001;51.968;5.918;2022-07-17T01:32:51;595.90;;;551.15;;
22768;SDS011;13001;51.968;5.918;2022-07-17T01:35:19;607.13;;;561.27;;
22768;SDS011;13001;51.968;5.918;2022-07-17T01:37:46;582.20;;;538.80;;
22768;SDS011;13001;51.968;5.918;2022-07-17T01:40:15;602.23;;;556.60;;
22768;SDS011;13001;51.968;5.918;2022-07-17T01:42:43;607.27;;;560.90;;
22768;SDS011;13001;51.968;5.918;2022-07-17T01:45:11;602.37;;;556.37;;
22768;SDS011;13001;51.968;5.918;2022-07-17T01:47:38;612.02;;;565.28;;
22768;SDS011;13001;51.968;5.918;2022-07-17T01:50:06;615.80;;;569.30;;
22768;SDS011;13001;51.968;5.918;2022-07-17T01:52:37;611.42;;;565.10;;
22768;SDS011;13001;51.968;5.918;2022-07-17T01:55:06;607.27;;;561.33;;
22768;SDS011;13001;51.968;5.918;2022-07-17T01:57:33;606.97;;;559.90;;
22768;SDS011;13001;51.968;5.918;2022-07-17T02:00:02;622.05;;;573.42;;
22768;SDS011;13001;51.968;5.918;2022-07-17T02:02:30;638.08;;;588.85;;
22768;SDS011;13001;51.968;5.918;2022-07-17T02:04:57;641.08;;;591.15;;
22768;SDS011;13001;51.968;5.918;2022-07-17T02:07:24;621.67;;;574.47;;
22768;SDS011;13001;51.968;5.918;2022-07-17T02:09:51;623.67;;;575.33;;
22768;SDS011;13001;51.968;5.918;2022-07-17T02:12:19;625.80;;;577.65;;
22768;SDS011;13001;51.968;5.918;2022-07-17T02:14:46;632.73;;;582.90;;
22768;SDS011;13001;51.968;5.918;2022-07-17T02:17:13;640.50;;;589.90;;
22768;SDS011;13001;51.968;5.918;2022-07-17T02:19:40;651.80;;;600.20;;
22768;SDS011;13001;51.968;5.918;2022-07-17T02:22:08;653.38;;;602.28;;
22768;SDS011;13001;51.968;5.918;2022-07-17T02:24:35;646.53;;;596.08;;
22768;SDS011;13001;51.968;5.918;2022-07-17T02:27:02;629.50;;;580.00;;
22768;SDS011;13001;51.968;5.918;2022-07-17T02:29:29;648.47;;;596.85;;
22768;SDS011;13001;51.968;5.918;2022-07-17T02:31:57;643.95;;;592.48;;
22768;SDS011;13001;51.968;5.918;2022-07-17T02:34:24;640.83;;;589.67;;
22768;SDS011;13001;51.968;5.918;2022-07-17T02:36:51;651.03;;;599.37;;
22768;SDS011;13001;51.968;5.918;2022-07-17T02:39:18;646.25;;;594.52;;
22768;SDS011;13001;51.968;5.918;2022-07-17T02:41:46;649.83;;;597.90;;
22768;SDS011;13001;51.968;5.918;2022-07-17T02:44:13;650.67;;;598.45;;
22768;SDS011;13001;51.968;5.918;2022-07-17T02:46:40;650.07;;;597.90;;
22768;SDS011;13001;51.968;5.918;2022-07-17T02:49:07;639.45;;;588.33;;
22768;SDS011;13001;51.968;5.918;2022-07-17T02:51:35;634.55;;;583.38;;
22768;SDS011;13001;51.968;5.918;2022-07-17T02:54:02;648.33;;;596.42;;
22768;SDS011;13001;51.968;5.918;2022-07-17T02:56:29;639.93;;;588.50;;
22768;SDS011;13001;51.968;5.918;2022-07-17T02:58:56;636.52;;;585.35;;
22768;SDS011;13001;51.968;5.918;2022-07-17T03:01:24;625.25;;;574.80;;
22768;SDS011;13001;51.968;5.918;2022-07-17T03:03:51;637.80;;;586.77;;
22768;SDS011;13001;51.968;5.918;2022-07-17T03:06:18;644.87;;;592.87;;
22768;SDS011;13001;51.968;5.918;2022-07-17T03:08:46;648.73;;;595.92;;
22768;SDS011;13001;51.968;5.918;2022-07-17T03:11:13;633.40;;;582.20;;
22768;SDS011;13001;51.968;5.918;2022-07-17T03:13:40;642.55;;;590.60;;
22768;SDS011;13001;51.968;5.918;2022-07-17T03:16:07;649.97;;;597.13;;
22768;SDS011;13001;51.968;5.918;2022-07-17T03:18:35;651.00;;;598.40;;
22768;SDS011;13001;51.968;5.918;2022-07-17T03:21:02;664.08;;;609.55;;
22768;SDS011;13001;51.968;5.918;2022-07-17T03:23:29;633.07;;;581.83;;
22768;SDS011;13001;51.968;5.918;2022-07-17T03:25:57;638.85;;;586.85;;
22768;SDS011;13001;51.968;5.918;2022-07-17T03:28:24;635.48;;;584.17;;
22768;SDS011;13001;51.968;5.918;2022-07-17T03:30:51;639.45;;;587.67;;
22768;SDS011;13001;51.968;5.918;2022-07-17T03:33:19;647.42;;;594.88;;
22768;SDS011;13001;51.968;5.918;2022-07-17T03:35:46;648.90;;;596.75;;
22768;SDS011;13001;51.968;5.918;2022-07-17T03:38:13;631.00;;;580.33;;
22768;SDS011;13001;51.968;5.918;2022-07-17T03:40:40;637.35;;;585.02;;
22768;SDS011;13001;51.968;5.918;2022-07-17T03:43:08;650.15;;;597.35;;
22768;SDS011;13001;51.968;5.918;2022-07-17T03:45:35;648.80;;;596.15;;
22768;SDS011;13001;51.968;5.918;2022-07-17T03:48:02;640.38;;;588.03;;
22768;SDS011;13001;51.968;5.918;2022-07-17T03:50:30;662.83;;;610.10;;
22768;SDS011;13001;51.968;5.918;2022-07-17T03:52:57;647.20;;;595.33;;
22768;SDS011;13001;51.968;5.918;2022-07-17T03:55:24;647.75;;;596.08;;
22768;SDS011;13001;51.968;5.918;2022-07-17T03:57:51;661.98;;;609.48;;
22768;SDS011;13001;51.968;5.918;2022-07-17T04:00:19;666.67;;;613.50;;
22768;SDS011;13001;51.968;5.918;2022-07-17T04:02:46;672.10;;;618.02;;
22768;SDS011;13001;51.968;5.918;2022-07-17T04:05:13;649.25;;;597.65;;
22768;SDS011;13001;51.968;5.918;2022-07-17T04:07:41;580.37;;;537.08;;
22768;SDS011;13001;51.968;5.918;2022-07-17T04:10:09;531.08;;;495.27;;
22768;SDS011;13001;51.968;5.918;2022-07-17T04:12:37;571.65;;;534.13;;
22768;SDS011;13001;51.968;5.918;2022-07-17T04:15:04;623.80;;;580.83;;
22768;SDS011;13001;51.968;5.918;2022-07-17T04:17:32;672.70;;;626.57;;
22768;SDS011;13001;51.968;5.918;2022-07-17T04:19:59;699.30;;;650.37;;
22768;SDS011;13001;51.968;5.918;2022-07-17T04:22:26;726.73;;;674.23;;
22768;SDS011;13001;51.968;5.918;2022-07-17T04:24:54;768.10;;;713.08;;
22768;SDS011;13001;51.968;5.918;2022-07-17T04:27:21;793.77;;;735.05;;
22768;SDS011;13001;51.968;5.918;2022-07-17T04:29:48;792.50;;;732.60;;
22768;SDS011;13001;51.968;5.918;2022-07-17T04:32:15;793.17;;;731.37;;
22768;SDS011;13001;51.968;5.918;2022-07-17T04:34:43;832.60;;;767.55;;
22768;SDS011;13001;51.968;5.918;2022-07-17T04:37:10;834.80;;;771.63;;
22768;SDS011;13001;51.968;5.918;2022-07-17T04:39:37;841.87;;;778.65;;
22768;SDS011;13001;51.968;5.918;2022-07-17T04:42:04;856.43;;;791.93;;
22768;SDS011;13001;51.968;5.918;2022-07-17T04:44:32;850.67;;;786.27;;
22768;SDS011;13001;51.968;5.918;2022-07-17T04:46:59;842.15;;;778.42;;
22768;SDS011;13001;51.968;5.918;2022-07-17T04:49:26;829.75;;;766.52;;
22768;SDS011;13001;51.968;5.918;2022-07-17T04:51:54;743.67;;;687.90;;
22768;SDS011;13001;51.968;5.918;2022-07-17T04:54:21;713.55;;;659.92;;
22768;SDS011;13001;51.968;5.918;2022-07-17T04:56:48;758.75;;;698.58;;
22768;SDS011;13001;51.968;5.918;2022-07-17T04:59:16;810.67;;;746.05;;
22768;SDS011;13001;51.968;5.918;2022-07-17T05:01:43;863.72;;;793.25;;
22768;SDS011;13001;51.968;5.918;2022-07-17T05:04:10;901.15;;;827.37;;
22768;SDS011;13001;51.968;5.918;2022-07-17T05:06:37;977.95;;;897.15;;
22768;SDS011;13001;51.968;5.918;2022-07-17T05:09:05;980.70;;;899.02;;
22768;SDS011;13001;51.968;5.918;2022-07-17T05:11:32;980.35;;;899.38;;
22768;SDS011;13001;51.968;5.918;2022-07-17T05:13:59;999.30;;;912.80;;
22768;SDS011;13001;51.968;5.918;2022-07-17T05:16:28;911.85;;;833.53;;
22768;SDS011;13001;51.968;5.918;2022-07-17T05:18:56;782.85;;;719.37;;
22768;SDS011;13001;51.968;5.918;2022-07-17T05:21:23;662.10;;;613.10;;
22768;SDS011;13001;51.968;5.918;2022-07-17T05:23:50;692.33;;;638.12;;
22768;SDS011;13001;51.968;5.918;2022-07-17T05:26:18;743.73;;;683.62;;
22768;SDS011;13001;51.968;5.918;2022-07-17T05:28:45;871.20;;;801.10;;
22768;SDS011;13001;51.968;5.918;2022-07-17T05:31:12;960.50;;;881.78;;
22768;SDS011;13001;51.968;5.918;2022-07-17T05:33:41;925.85;;;850.90;;
22768;SDS011;13001;51.968;5.918;2022-07-17T05:36:08;914.15;;;841.45;;
22768;SDS011;13001;51.968;5.918;2022-07-17T05:38:36;730.52;;;677.40;;
22768;SDS011;13001;51.968;5.918;2022-07-17T05:41:04;786.17;;;728.33;;
22768;SDS011;13001;51.968;5.918;2022-07-17T05:43:31;743.65;;;690.23;;
22768;SDS011;13001;51.968;5.918;2022-07-17T05:45:59;724.40;;;672.40;;
22768;SDS011;13001;51.968;5.918;2022-07-17T05:48:26;711.88;;;661.88;;
22768;SDS011;13001;51.968;5.918;2022-07-17T05:50:54;815.98;;;758.58;;
22768;SDS011;13001;51.968;5.918;2022-07-17T05:53:21;815.98;;;759.05;;
22768;SDS011;13001;51.968;5.918;2022-07-17T05:55:48;808.33;;;751.35;;
22768;SDS011;13001;51.968;5.918;2022-07-17T05:58:16;802.67;;;745.33;;
22768;SDS011;13001;51.968;5.918;2022-07-17T06:00:43;769.73;;;716.33;;
22768;SDS011;13001;51.968;5.918;2022-07-17T06:03:11;795.17;;;738.67;;
22768;SDS011;13001;51.968;5.918;2022-07-17T06:05:38;799.92;;;741.70;;
22768;SDS011;13001;51.968;5.918;2022-07-17T06:08:06;788.10;;;732.03;;
22768;SDS011;13001;51.968;5.918;2022-07-17T06:10:33;771.60;;;716.20;;
22768;SDS011;13001;51.968;5.918;2022-07-17T06:13:00;760.55;;;706.42;;
22768;SDS011;13001;51.968;5.918;2022-07-17T06:15:28;758.45;;;704.65;;
22768;SDS011;13001;51.968;5.918;2022-07-17T06:17:55;729.33;;;678.23;;
22768;SDS011;13001;51.968;5.918;2022-07-17T06:20:22;757.03;;;703.37;;
22768;SDS011;13001;51.968;5.918;2022-07-17T06:22:50;726.25;;;675.15;;
22768;SDS011;13001;51.968;5.918;2022-07-17T06:25:17;619.88;;;579.38;;
22768;SDS011;13001;51.968;5.918;2022-07-17T06:27:44;677.17;;;632.27;;
22768;SDS011;13001;51.968;5.918;2022-07-17T06:30:12;429.32;;;403.45;;
22768;SDS011;13001;51.968;5.918;2022-07-17T06:32:39;453.92;;;426.35;;
22768;SDS011;13001;51.968;5.918;2022-07-17T06:35:07;441.73;;;415.82;;
22768;SDS011;13001;51.968;5.918;2022-07-17T06:37:36;413.63;;;389.02;;
22768;SDS011;13001;51.968;5.918;2022-07-17T06:40:04;396.98;;;374.12;;
22768;SDS011;13001;51.968;5.918;2022-07-17T06:42:32;350.13;;;330.30;;
22768;SDS011;13001;51.968;5.918;2022-07-17T06:44:59;302.85;;;285.77;;
22768;SDS011;13001;51.968;5.918;2022-07-17T06:47:26;257.75;;;243.63;;
22768;SDS011;13001;51.968;5.918;2022-07-17T06:49:53;200.87;;;189.50;;
22768;SDS011;13001;51.968;5.918;2022-07-17T06:52:21;180.82;;;170.47;;
22768;SDS011;13001;51.968;5.918;2022-07-17T06:54:48;156.82;;;147.72;;
22768;SDS011;13001;51.968;5.918;2022-07-17T06:57:15;156.95;;;147.20;;
22768;SDS011;13001;51.968;5.918;2022-07-17T06:59:43;170.85;;;160.35;;
22768;SDS011;13001;51.968;5.918;2022-07-17T07:02:12;189.60;;;178.02;;
22768;SDS011;13001;51.968;5.918;2022-07-17T07:04:39;204.82;;;192.75;;
22768;SDS011;13001;51.968;5.918;2022-07-17T07:07:06;207.80;;;195.87;;
22768;SDS011;13001;51.968;5.918;2022-07-17T07:09:33;194.75;;;183.60;;
22768;SDS011;13001;51.968;5.918;2022-07-17T07:12:00;192.75;;;181.97;;
22768;SDS011;13001;51.968;5.918;2022-07-17T07:14:28;190.62;;;179.57;;
22768;SDS011;13001;51.968;5.918;2022-07-17T07:16:55;159.03;;;149.90;;
22768;SDS011;13001;51.968;5.918;2022-07-17T07:19:22;166.40;;;156.82;;
22768;SDS011;13001;51.968;5.918;2022-07-17T07:21:49;132.57;;;125.07;;
22768;SDS011;13001;51.968;5.918;2022-07-17T07:24:17;109.48;;;103.42;;
22768;SDS011;13001;51.968;5.918;2022-07-17T07:26:44;72.25;;;68.17;;
22768;SDS011;13001;51.968;5.918;2022-07-17T07:29:11;43.83;;;41.23;;
22768;SDS011;13001;51.968;5.918;2022-07-17T07:31:38;34.67;;;32.58;;
22768;SDS011;13001;51.968;5.918;2022-07-17T07:34:06;21.70;;;20.40;;
22768;SDS011;13001;51.968;5.918;2022-07-17T07:36:34;18.57;;;17.52;;
22768;SDS011;13001;51.968;5.918;2022-07-17T07:39:01;19.27;;;18.00;;
22768;SDS011;13001;51.968;5.918;2022-07-17T07:41:31;17.90;;;16.70;;
22768;SDS011;13001;51.968;5.918;2022-07-17T07:43:58;20.70;;;19.50;;
22768;SDS011;13001;51.968;5.918;2022-07-17T07:46:26;21.87;;;20.57;;
22768;SDS011;13001;51.968;5.918;2022-07-17T07:48:53;25.20;;;23.60;;
22768;SDS011;13001;51.968;5.918;2022-07-17T07:51:20;27.73;;;25.97;;
22768;SDS011;13001;51.968;5.918;2022-07-17T07:53:47;30.50;;;28.77;;
22768;SDS011;13001;51.968;5.918;2022-07-17T07:56:15;31.00;;;29.10;;
22768;SDS011;13001;51.968;5.918;2022-07-17T07:58:42;36.13;;;34.10;;
22768;SDS011;13001;51.968;5.918;2022-07-17T08:01:09;38.70;;;36.57;;
22768;SDS011;13001;51.968;5.918;2022-07-17T08:03:36;38.98;;;36.85;;
22768;SDS011;13001;51.968;5.918;2022-07-17T08:06:04;37.80;;;35.68;;
22768;SDS011;13001;51.968;5.918;2022-07-17T08:08:32;39.83;;;37.58;;
22768;SDS011;13001;51.968;5.918;2022-07-17T08:10:59;45.48;;;42.98;;
22768;SDS011;13001;51.968;5.918;2022-07-17T08:13:28;40.73;;;38.53;;
22768;SDS011;13001;51.968;5.918;2022-07-17T08:15:55;45.33;;;42.93;;
22768;SDS011;13001;51.968;5.918;2022-07-17T08:18:22;44.33;;;41.92;;
22768;SDS011;13001;51.968;5.918;2022-07-17T08:20:49;45.30;;;42.70;;
22768;SDS011;13001;51.968;5.918;2022-07-17T08:23:17;48.00;;;45.40;;
22768;SDS011;13001;51.968;5.918;2022-07-17T08:25:44;51.18;;;48.38;;
22768;SDS011;13001;51.968;5.918;2022-07-17T08:28:13;53.90;;;51.00;;
22768;SDS011;13001;51.968;5.918;2022-07-17T08:30:41;52.67;;;49.80;;
22768;SDS011;13001;51.968;5.918;2022-07-17T08:33:08;51.37;;;48.52;;
22768;SDS011;13001;51.968;5.918;2022-07-17T08:35:36;50.80;;;48.00;;
22768;SDS011;13001;51.968;5.918;2022-07-17T08:38:03;47.47;;;44.77;;
22768;SDS011;13001;51.968;5.918;2022-07-17T08:40:35;52.23;;;49.35;;
22768;SDS011;13001;51.968;5.918;2022-07-17T08:43:03;46.40;;;43.57;;
22768;SDS011;13001;51.968;5.918;2022-07-17T08:45:30;47.25;;;44.63;;
22768;SDS011;13001;51.968;5.918;2022-07-17T08:47:58;46.15;;;43.55;;
22768;SDS011;13001;51.968;5.918;2022-07-17T08:50:28;46.80;;;44.20;;
22768;SDS011;13001;51.968;5.918;2022-07-17T08:52:56;43.87;;;41.48;;
22768;SDS011;13001;51.968;5.918;2022-07-17T08:55:23;44.73;;;42.17;;
22768;SDS011;13001;51.968;5.918;2022-07-17T08:57:50;45.30;;;42.38;;
22768;SDS011;13001;51.968;5.918;2022-07-17T09:00:19;47.77;;;45.13;;
22768;SDS011;13001;51.968;5.918;2022-07-17T09:03:05;49.75;;;46.95;;
22768;SDS011;13001;51.968;5.918;2022-07-17T09:05:37;48.77;;;45.97;;
22768;SDS011;13001;51.968;5.918;2022-07-17T09:08:05;47.67;;;44.98;;
22768;SDS011;13001;51.968;5.918;2022-07-17T09:10:38;45.95;;;43.35;;
22768;SDS011;13001;51.968;5.918;2022-07-17T09:13:16;47.78;;;44.98;;
22768;SDS011;13001;51.968;5.918;2022-07-17T09:15:44;42.03;;;39.73;;
22768;SDS011;13001;51.968;5.918;2022-07-17T09:18:12;46.43;;;43.93;;
22768;SDS011;13001;51.968;5.918;2022-07-17T09:20:53;43.30;;;40.90;;
22768;SDS011;13001;51.968;5.918;2022-07-17T09:23:17;46.10;;;43.60;;
22768;SDS011;13001;51.968;5.918;2022-07-17T09:25:46;43.98;;;41.60;;
22768;SDS011;13001;51.968;5.918;2022-07-17T09:28:14;45.12;;;42.53;;
22768;SDS011;13001;51.968;5.918;2022-07-17T09:30:42;45.33;;;42.63;;
22768;SDS011;13001;51.968;5.918;2022-07-17T09:33:14;45.88;;;43.17;;
22768;SDS011;13001;51.968;5.918;2022-07-17T09:35:50;47.48;;;44.88;;
22768;SDS011;13001;51.968;5.918;2022-07-17T09:38:24;47.98;;;45.38;;
22768;SDS011;13001;51.968;5.918;2022-07-17T09:40:42;80.15;;;75.60;;
22768;SDS011;13001;51.968;5.918;2022-07-17T09:43:37;110.30;;;104.03;;
22768;SDS011;13001;51.968;5.918;2022-07-17T09:45:56;112.55;;;106.25;;
22768;SDS011;13001;51.968;5.918;2022-07-17T09:48:23;112.20;;;105.85;;
22768;SDS011;13001;51.968;5.918;2022-07-17T09:50:50;77.10;;;72.67;;
22768;SDS011;13001;51.968;5.918;2022-07-17T09:53:18;84.83;;;79.82;;
22768;SDS011;13001;51.968;5.918;2022-07-17T09:55:45;66.50;;;62.90;;
22768;SDS011;13001;51.968;5.918;2022-07-17T09:58:13;67.70;;;64.10;;
22768;SDS011;13001;51.968;5.918;2022-07-17T10:00:40;57.65;;;54.53;;
22768;SDS011;13001;51.968;5.918;2022-07-17T10:03:07;59.05;;;55.85;;
22768;SDS011;13001;51.968;5.918;2022-07-17T10:05:35;61.80;;;58.37;;
22768;SDS011;13001;51.968;5.918;2022-07-17T10:08:02;77.97;;;73.47;;
22768;SDS011;13001;51.968;5.918;2022-07-17T10:10:29;81.92;;;77.42;;
22768;SDS011;13001;51.968;5.918;2022-07-17T10:12:56;67.53;;;63.75;;
22768;SDS011;13001;51.968;5.918;2022-07-17T10:15:24;61.10;;;57.60;;
22768;SDS011;13001;51.968;5.918;2022-07-17T10:18:05;63.85;;;60.45;;
22768;SDS011;13001;51.968;5.918;2022-07-17T10:20:33;70.55;;;66.53;;
22768;SDS011;13001;51.968;5.918;2022-07-17T10:23:10;77.00;;;72.70;;
22768;SDS011;13001;51.968;5.918;2022-07-17T10:25:29;94.00;;;88.67;;
22768;SDS011;13001;51.968;5.918;2022-07-17T10:27:56;94.70;;;89.40;;
22768;SDS011;13001;51.968;5.918;2022-07-17T10:30:27;121.93;;;115.03;;
22768;SDS011;13001;51.968;5.918;2022-07-17T10:32:55;128.00;;;120.60;;
22768;SDS011;13001;51.968;5.918;2022-07-17T10:35:25;148.40;;;139.70;;
22768;SDS011;13001;51.968;5.918;2022-07-17T10:37:52;156.07;;;146.95;;
22768;SDS011;13001;51.968;5.918;2022-07-17T10:40:21;161.25;;;151.95;;
22768;SDS011;13001;51.968;5.918;2022-07-17T10:42:59;168.10;;;158.23;;
22768;SDS011;13001;51.968;5.918;2022-07-17T10:45:28;176.12;;;165.85;;
22768;SDS011;13001;51.968;5.918;2022-07-17T10:47:59;175.70;;;165.30;;
22768;SDS011;13001;51.968;5.918;2022-07-17T10:50:34;161.92;;;152.82;;
22768;SDS011;13001;51.968;5.918;2022-07-17T10:53:06;197.37;;;186.50;;
22768;SDS011;13001;51.968;5.918;2022-07-17T10:55:34;254.25;;;239.72;;
22768;SDS011;13001;51.968;5.918;2022-07-17T10:58:03;221.93;;;209.70;;
22768;SDS011;13001;51.968;5.918;2022-07-17T11:00:30;274.75;;;258.70;;
22768;SDS011;13001;51.968;5.918;2022-07-17T11:03:07;272.70;;;256.63;;
22768;SDS011;13001;51.968;5.918;2022-07-17T11:05:27;267.52;;;252.03;;
